.
WxDataArchive / Data Records for 2007-06-30
2007-06-29 June 2007 2007-07-01

Data Records for Saturday, 30 June 2007

Time	Temp	Chill	HIndex	Humid	Dewpt	 Wind 	HiWind	WindDir	Rain 	Barom 
-----	----	-----	------	-----	-----	------	------	-------	-----	----- 
00:00	60.4	60.4	60.4	79	53.9	0	0	---	0.00	30.063 
00:05	60.2	60.2	60.2	80	54.0	0	0	---	0.00	30.063 
00:10	60.1	60.1	60.1	80	53.9	0	0	---	0.00	30.063 
00:15	59.9	59.9	59.9	80	53.7	0	0	---	0.00	30.063 
00:20	59.8	59.8	59.8	81	54.0	0	0	---	0.00	30.062 
00:25	59.8	59.8	59.8	81	54.0	0	0	---	0.00	30.062 
00:30	59.6	59.6	59.6	82	54.1	0	0	---	0.00	30.062 
00:35	59.5	59.5	59.5	82	54.0	0	0	---	0.00	30.063 
00:40	59.3	59.3	59.3	82	53.8	0	0	---	0.00	30.063 
00:45	59.3	59.3	59.3	82	53.8	0	0	---	0.00	30.063 
00:50	59.2	59.2	59.2	83	54.0	0	0	---	0.00	30.062 
00:55	59.0	59.0	59.0	84	54.2	0	0	---	0.00	30.063 
01:00	59.0	59.0	59.0	84	54.2	0	0	---	0.00	30.062 
01:05	58.9	58.9	58.9	85	54.4	0	0	---	0.00	30.061 
01:10	58.7	58.7	58.7	85	54.2	0	0	---	0.00	30.060 
01:15	58.6	58.6	58.6	86	54.4	0	0	---	0.00	30.060 
01:20	58.4	58.4	58.4	86	54.2	0	0	---	0.00	30.057 
01:25	58.3	58.3	58.3	86	54.1	0	0	---	0.00	30.057 
01:30	58.1	58.1	58.1	87	54.2	0	0	---	0.00	30.053 
01:35	58.0	58.0	58.0	87	54.1	0	0	---	0.00	30.053 
01:40	57.8	57.8	57.8	88	54.3	0	0	---	0.00	30.052 
01:45	57.6	57.6	57.6	88	54.1	0	0	---	0.00	30.051 
01:50	57.5	57.5	57.5	88	54.0	0	0	---	0.00	30.049 
01:55	57.3	57.3	57.3	89	54.1	0	0	---	0.00	30.049 
02:00	57.3	57.3	57.3	89	54.1	0	0	---	0.00	30.050 
02:05	57.2	57.2	57.2	89	54.0	0	0	---	0.00	30.049 
02:10	57.2	57.2	57.2	90	54.3	0	0	---	0.00	30.049 
02:15	57.0	57.0	57.0	90	54.1	0	0	---	0.00	30.048 
02:20	57.0	57.0	57.0	90	54.1	0	0	---	0.00	30.048 
02:25	56.9	56.9	56.9	90	54.0	0	0	---	0.00	30.049 
02:30	56.7	56.7	56.7	91	54.1	0	0	---	0.00	30.048 
02:35	56.7	56.7	56.7	91	54.1	0	0	---	0.00	30.047 
02:40	56.7	56.7	56.7	91	54.1	0	0	---	0.00	30.047 
02:45	56.6	56.6	56.6	92	54.3	0	0	---	0.00	30.047 
02:50	56.5	56.5	56.5	92	54.2	0	0	---	0.00	30.044 
02:55	56.5	56.5	56.5	92	54.2	0	0	---	0.00	30.042 
03:00	56.3	56.3	56.3	92	54.0	0	0	---	0.00	30.038 
03:05	56.3	56.3	56.3	92	54.0	0	0	---	0.00	30.037 
03:10	56.2	56.2	56.2	92	53.9	0	0	---	0.00	30.038 
03:15	56.2	56.2	56.2	93	54.2	0	0	---	0.00	30.037 
03:20	56.2	56.2	56.2	93	54.2	0	0	---	0.00	30.035 
03:25	56.0	56.0	56.0	93	54.0	0	0	---	0.00	30.035 
03:30	56.2	56.2	56.2	93	54.2	0	0	---	0.00	30.037 
03:35	56.2	56.2	56.2	94	54.5	0	0	---	0.00	30.037 
03:40	56.2	56.2	56.2	94	54.5	0	0	---	0.00	30.037 
03:45	56.2	56.2	56.2	94	54.5	0	0	---	0.00	30.040 
03:50	56.2	56.2	56.2	94	54.5	0	0	---	0.00	30.042 
03:55	56.2	56.2	56.2	94	54.5	0	0	---	0.00	30.047 
04:00	56.2	56.2	56.2	94	54.5	0	0	---	0.00	30.046 
04:05	56.2	56.2	56.2	94	54.5	0	0	---	0.00	30.047 
04:10	56.0	56.0	56.0	94	54.3	0	0	---	0.00	30.046 
04:15	55.9	55.9	55.9	94	54.2	0	0	---	0.00	30.048 
04:20	55.9	55.9	55.9	93	53.9	0	0	---	0.00	30.048 
04:25	55.7	55.7	55.7	93	53.7	0	0	---	0.00	30.049 
04:30	55.6	55.6	55.6	93	53.6	0	0	---	0.00	30.049 
04:35	55.4	55.4	55.4	93	53.4	0	0	---	0.00	30.048 
04:40	55.3	55.3	55.3	93	53.3	0	0	---	0.00	30.048 
04:45	55.3	55.3	55.3	93	53.3	0	0	---	0.00	30.048 
04:50	55.1	55.1	55.1	93	53.1	0	0	---	0.00	30.050 
04:55	55.0	55.0	55.0	93	53.0	0	0	---	0.00	30.052 
05:00	54.8	54.8	54.8	93	52.8	0	0	---	0.00	30.059 
05:05	54.7	54.7	54.7	93	52.7	0	0	---	0.00	30.062 
05:10	54.7	54.7	54.7	93	52.7	0	0	---	0.00	30.062 
05:15	54.5	54.5	54.5	93	52.5	0	0	---	0.00	30.062 
05:20	54.5	54.5	54.5	94	52.8	0	0	---	0.00	30.064 
05:25	54.5	54.5	54.5	94	52.8	0	0	---	0.00	30.065 
05:30	54.5	54.5	54.5	94	52.8	0	0	---	0.00	30.066 
05:35	54.4	54.4	54.4	94	52.7	0	0	---	0.00	30.066 
05:40	54.5	54.5	54.5	94	52.8	0	0	---	0.00	30.067 
05:45	54.5	54.5	54.5	94	52.8	0	0	---	0.00	30.067 
05:50	54.7	54.7	54.7	94	53.0	0	0	---	0.00	30.069 
05:55	54.8	54.8	54.8	95	53.4	0	0	---	0.00	30.068 
06:00	55.1	55.1	55.1	95	53.7	0	0	---	0.00	30.067 
06:05	55.3	55.3	55.3	95	53.9	0	0	---	0.00	30.065 
06:10	55.6	55.6	55.6	95	54.2	0	0	---	0.00	30.065 
06:15	55.9	55.9	55.9	95	54.5	0	0	---	0.00	30.065 
06:20	56.3	56.3	56.3	95	54.9	0	0	---	0.00	30.065 
06:25	56.6	56.6	56.6	94	54.9	0	0	---	0.00	30.063 
06:30	56.9	56.9	56.9	94	55.2	0	0	---	0.00	30.064 
06:35	57.2	57.2	57.2	92	54.9	0	0	---	0.00	30.062 
06:40	57.6	57.6	57.6	91	55.0	0	0	---	0.00	30.063 
06:45	58.3	58.3	58.3	88	54.8	0	0	---	0.00	30.060 
06:50	58.9	58.9	58.9	84	54.1	0	0	---	0.00	30.062 
06:55	59.6	59.6	59.6	82	54.1	0	0	---	0.00	30.062 
07:00	60.4	60.4	60.4	79	53.9	0	0	---	0.00	30.063 
07:05	61.6	61.6	61.6	74	53.2	0	0	---	0.00	30.064 
07:10	62.9	62.9	62.9	68	52.2	0	2	90	0.00	30.063 
07:15	64.2	64.2	64.2	65	52.2	0	1	90	0.00	30.062 
07:20	65.0	65.0	65.0	64	52.5	0	0	---	0.00	30.062 
07:25	66.3	66.3	66.3	65	54.2	0	1	90	0.00	30.060 
07:30	67.4	67.4	67.4	63	54.4	0	1	90	0.00	30.061 
07:35	68.1	68.1	68.1	62	54.6	0	1	90	0.00	30.062 
07:40	68.4	68.4	68.4	60	54.0	0	0	---	0.00	30.062 
07:45	68.9	68.9	68.9	59	54.0	0	1	90	0.00	30.059 
07:50	69.4	69.4	69.4	61	55.4	0	1	90	0.00	30.058 
07:55	69.9	69.9	69.9	59	54.9	0	0	---	0.00	30.059 
08:00	70.4	70.4	70.4	57	54.4	0	1	90	0.00	30.064 
08:05	70.8	70.8	70.8	59	55.7	0	2	90	0.00	30.072 
08:10	70.9	70.9	70.9	57	54.9	0	1	90	0.00	30.069 
08:15	71.5	71.5	71.5	57	55.5	1	3	90	0.00	30.068 
08:20	71.5	71.5	71.5	56	55.0	0	2	90	0.00	30.067 
08:25	71.3	71.3	71.3	57	55.3	1	3	90	0.00	30.070 
08:30	71.1	71.1	71.1	58	55.6	1	3	90	0.00	30.072 
08:35	71.1	71.1	71.1	59	56.0	1	2	90	0.00	30.069 
08:40	70.9	70.9	70.9	57	54.9	1	3	90	0.00	30.068 
08:45	70.9	70.9	70.9	57	54.9	1	3	90	0.00	30.068 
08:50	71.3	71.3	71.3	56	54.8	1	2	90	0.00	30.066 
08:55	72.0	72.0	72.0	58	56.4	0	1	90	0.00	30.068 
09:00	72.7	72.7	72.7	53	54.6	1	4	112	0.00	30.066 
09:05	73.0	73.0	73.0	51	53.8	1	3	90	0.00	30.067 
09:10	72.8	72.8	72.8	52	54.1	1	4	90	0.00	30.065 
09:15	73.2	73.2	73.2	51	54.0	1	3	90	0.00	30.063 
09:20	73.2	73.2	73.2	50	53.4	1	4	90	0.00	30.063 
09:25	73.3	73.3	73.3	49	53.0	0	3	112	0.00	30.064 
09:30	73.9	73.9	73.9	48	53.0	0	1	112	0.00	30.060 
09:35	74.4	74.4	74.4	43	50.4	0	3	112	0.00	30.059 
09:40	74.6	74.6	74.6	45	51.8	1	4	112	0.00	30.059 
09:45	74.6	74.6	74.6	43	50.6	1	3	90	0.00	30.061 
09:50	74.4	74.4	74.4	42	49.8	1	3	90	0.00	30.063 
09:55	74.6	74.6	74.6	43	50.6	0	2	135	0.00	30.061 
10:00	74.9	74.9	74.9	44	51.5	1	5	112	0.00	30.062 
10:05	75.4	75.4	77.6	41	50.0	1	3	90	0.00	30.067 
10:10	75.6	75.6	77.7	42	50.9	1	3	90	0.00	30.071 
10:15	76.0	76.0	77.7	38	48.5	1	4	90	0.00	30.067 
10:20	75.8	75.8	77.7	39	49.1	0	2	90	0.00	30.069 
10:25	76.1	76.1	77.8	38	48.6	1	3	68	0.00	30.069 
10:30	76.5	76.5	77.9	38	49.0	0	3	68	0.00	30.071 
10:35	76.5	76.5	78.1	43	52.3	1	4	90	0.00	30.068 
10:40	76.5	76.5	77.9	37	48.3	1	4	135	0.00	30.068 
10:45	76.3	76.3	77.8	38	48.8	1	3	135	0.00	30.067 
10:50	76.1	76.1	77.8	39	49.3	1	3	112	0.00	30.064 
10:55	76.3	76.3	78.0	43	52.1	1	3	112	0.00	30.062 
11:00	76.7	76.7	78.2	42	51.9	0	2	90	0.00	30.060 
11:05	77.2	77.2	78.3	39	50.3	1	5	90	0.00	30.061 
11:10	77.7	77.7	78.3	36	48.6	2	7	45	0.00	30.059 
11:15	77.6	77.6	78.2	35	47.8	1	4	90	0.00	30.059 
11:20	77.6	77.6	78.2	35	47.8	1	4	112	0.00	30.060 
11:25	77.4	77.4	78.1	35	47.6	1	4	112	0.00	30.060 
11:30	77.7	77.7	78.6	40	51.4	1	4	68	0.00	30.059 
11:35	77.9	77.9	78.4	35	48.0	2	5	90	0.00	30.059 
11:40	77.9	77.9	78.5	37	49.5	2	9	90	0.00	30.059 
11:45	77.4	77.4	78.1	35	47.6	1	4	112	0.00	30.059 
11:50	77.0	77.0	78.0	35	47.2	3	5	90	0.00	30.062 
11:55	77.0	77.0	78.0	36	48.0	1	3	315	0.00	30.061 
12:00	77.4	77.4	78.1	34	46.8	2	4	68	0.00	30.061 
12:05	77.7	77.7	78.1	32	45.5	1	5	158	0.00	30.061 
12:10	77.9	77.9	78.5	37	49.5	1	4	112	0.00	30.061 
12:15	78.3	78.3	78.6	36	49.1	0	2	112	0.00	30.063 
12:20	78.8	78.8	78.8	35	48.8	1	3	135	0.00	30.060 
12:25	78.8	78.8	78.7	33	47.2	1	5	135	0.00	30.060 
12:30	78.5	78.5	78.7	35	48.5	2	5	112	0.00	30.060 
12:35	78.6	78.6	78.7	35	48.6	0	2	112	0.00	30.059 
12:40	78.6	78.6	78.5	32	46.3	1	2	180	0.00	30.060 
12:45	78.8	78.8	78.8	35	48.8	1	2	202	0.00	30.061 
12:50	79.2	79.2	79.1	36	49.9	0	2	315	0.00	30.059 
12:55	78.6	78.6	78.6	33	47.1	1	4	315	0.00	30.060 
13:00	78.5	78.5	78.7	36	49.3	1	2	315	0.00	30.060 
13:05	78.6	78.6	78.4	29	43.7	1	2	270	0.00	30.061 
13:10	79.0	79.0	78.7	31	45.8	1	2	248	0.00	30.060 
13:15	79.4	79.4	79.1	34	48.6	1	4	135	0.00	30.060 
13:20	79.0	79.0	78.8	33	47.4	2	5	90	0.00	30.060 
13:25	78.8	78.8	78.6	31	45.6	1	4	90	0.00	30.060 
13:30	79.0	79.0	78.8	33	47.4	1	3	112	0.00	30.056 
13:35	79.4	79.4	78.8	30	45.2	1	3	112	0.00	30.056 
13:40	79.2	79.2	78.8	31	45.9	2	4	90	0.00	30.054 
13:45	79.4	79.4	78.8	30	45.2	1	3	90	0.00	30.052 
13:50	79.9	79.9	79.6	36	50.5	1	4	292	0.00	30.052 
13:55	80.1	80.1	79.6	35	50.0	1	6	248	0.00	30.052 
14:00	80.3	80.3	79.5	32	47.7	2	6	90	0.00	30.053 
14:05	80.3	80.3	79.5	32	47.7	1	3	90	0.00	30.054 
14:10	80.5	80.5	79.4	29	45.3	1	3	90	0.00	30.052 
14:15	80.3	80.3	79.4	31	46.9	2	5	90	0.00	30.049 
14:20	80.3	80.3	79.6	33	48.5	2	5	112	0.00	30.050 
14:25	79.8	79.8	79.2	32	47.3	3	6	90	0.00	30.048 
14:30	79.8	79.8	79.1	31	46.5	2	4	90	0.00	30.047 
14:35	79.8	79.8	79.3	33	48.1	1	4	90	0.00	30.047 
14:40	80.3	80.3	79.5	32	47.7	1	4	90	0.00	30.050 
14:45	80.7	80.7	79.8	33	48.9	1	3	90	0.00	30.048 
14:50	80.5	80.5	79.7	33	48.7	1	4	112	0.00	30.046 
14:55	80.5	80.5	79.6	32	47.9	2	4	112	0.00	30.045 
15:00	80.7	80.7	79.8	33	48.9	1	4	112	0.00	30.045 
15:05	80.7	80.7	79.6	30	46.4	1	4	112	0.00	30.045 
15:10	80.7	80.7	79.9	34	49.7	1	4	90	0.00	30.044 
15:15	80.7	80.7	79.8	33	48.9	1	4	90	0.00	30.044 
15:20	80.5	80.5	79.6	31	47.1	1	4	248	0.00	30.044 
15:25	80.5	80.5	79.9	36	51.1	1	3	112	0.00	30.042 
15:30	80.9	80.9	80.1	34	49.9	1	4	270	0.00	30.043 
15:35	80.9	80.9	79.7	29	45.6	2	5	90	0.00	30.041 
15:40	80.3	80.3	79.5	32	47.7	1	3	112	0.00	30.041 
15:45	79.8	79.8	79.3	33	48.1	2	4	90	0.00	30.039 
15:50	79.9	79.9	79.6	36	50.5	1	4	90	0.00	30.036 
15:55	80.1	80.1	79.4	32	47.6	2	4	90	0.00	30.036 
16:00	79.9	79.9	79.2	31	46.5	2	4	90	0.00	30.031 
16:05	80.1	80.1	79.7	36	50.7	1	2	90	0.00	30.032 
16:10	80.5	80.5	79.7	33	48.7	1	2	90	0.00	30.030 
16:15	80.5	80.5	79.6	31	47.1	1	4	112	0.00	30.029 
16:20	80.1	80.1	79.3	31	46.7	1	3	112	0.00	30.031 
16:25	79.8	79.8	79.2	32	47.3	1	3	135	0.00	30.030 
16:30	79.4	79.4	79.0	32	46.9	1	3	112	0.00	30.029 
16:35	79.6	79.6	79.2	34	48.7	0	2	112	0.00	30.031 
16:40	79.8	79.8	79.3	33	48.1	1	3	90	0.00	30.030 
16:45	80.1	80.1	79.6	35	50.0	1	3	248	0.00	30.029 
16:50	80.1	80.1	79.6	35	50.0	1	3	68	0.00	30.029 
16:55	79.9	79.9	79.3	33	48.2	1	2	68	0.00	30.030 
17:00	79.4	79.4	79.0	33	47.8	1	4	90	0.00	30.029 
17:05	78.8	78.8	78.8	35	48.8	0	2	90	0.00	30.029 
17:10	78.6	78.6	78.7	35	48.6	0	2	90	0.00	30.027 
17:15	78.3	78.3	78.5	34	47.6	1	2	90	0.00	30.024 
17:20	78.3	78.3	78.6	36	49.1	0	2	90	0.00	30.025 
17:25	78.3	78.3	78.5	34	47.6	1	3	90	0.00	30.022 
17:30	78.5	78.5	78.7	35	48.5	1	2	112	0.00	30.017 
17:35	78.8	78.8	78.8	35	48.8	0	2	158	0.00	30.014 
17:40	78.8	78.8	78.8	35	48.8	1	4	112	0.00	30.015 
17:45	78.6	78.6	78.7	35	48.6	0	3	112	0.00	30.016 
17:50	78.6	78.6	78.8	36	49.4	1	2	112	0.00	30.015 
17:55	78.3	78.3	78.5	34	47.6	0	2	112	0.00	30.015 
18:00	78.1	78.1	78.5	36	48.9	0	1	112	0.00	30.017 
18:05	77.7	77.7	78.3	35	47.8	0	2	135	0.00	30.011 
18:10	77.6	77.6	78.4	37	49.2	0	1	135	0.00	30.012 
18:15	77.4	77.4	78.1	35	47.6	0	1	135	0.00	30.015 
18:20	77.4	77.4	78.4	40	51.2	0	1	135	0.00	30.016 
18:25	77.2	77.2	78.3	39	50.3	0	1	135	0.00	30.013 
18:30	77.0	77.0	78.2	40	50.8	0	1	135	0.00	30.011 
18:35	76.8	76.8	78.1	39	49.9	0	1	135	0.00	30.010 
18:40	76.8	76.8	78.0	37	48.5	0	1	135	0.00	30.011 
18:45	76.7	76.7	78.1	39	49.9	0	1	135	0.00	30.010 
18:50	76.7	76.7	78.0	38	49.2	0	1	135	0.00	30.011 
18:55	76.7	76.7	78.1	39	49.9	0	0	---	0.00	30.010 
19:00	76.5	76.5	78.0	39	49.7	0	1	135	0.00	30.012 
19:05	76.5	76.5	78.0	39	49.7	0	0	---	0.00	30.004 
19:10	76.3	76.3	77.9	40	50.2	0	1	135	0.00	30.006 
19:15	76.1	76.1	77.9	41	50.7	0	1	135	0.00	30.007 
19:20	76.0	76.0	77.8	40	49.9	0	0	---	0.00	30.006 
19:25	75.8	75.8	77.8	42	51.1	0	0	---	0.00	30.007 
19:30	75.4	75.4	77.7	43	51.3	0	0	---	0.00	30.006 
19:35	75.1	75.1	77.6	41	49.8	0	0	---	0.00	30.008 
19:40	74.7	74.7	74.7	43	50.7	0	0	---	0.00	30.006 
19:45	74.6	74.6	74.6	44	51.2	0	0	---	0.00	30.006 
19:50	74.2	74.2	74.2	46	52.1	0	0	---	0.00	30.005 
19:55	73.9	73.9	73.9	47	52.4	0	0	---	0.00	30.006 
20:00	73.5	73.5	73.5	48	52.6	0	0	---	0.00	30.007 
20:05	72.8	72.8	72.8	48	52.0	0	0	---	0.00	30.004 
20:10	72.1	72.1	72.1	48	51.3	0	0	---	0.00	30.008 
20:15	71.8	71.8	71.8	47	50.5	0	0	---	0.00	30.008 
20:20	71.3	71.3	71.3	49	51.1	0	0	---	0.00	30.007 
20:25	70.9	70.9	70.9	50	51.3	0	0	---	0.00	30.007 
20:30	70.4	70.4	70.4	50	50.9	0	0	---	0.00	30.007 
20:35	70.1	70.1	70.1	51	51.1	0	0	---	0.00	30.010 
20:40	69.8	69.8	69.8	52	51.4	0	0	---	0.00	30.013 
20:45	69.6	69.6	69.6	53	51.7	0	1	135	0.00	30.014 
20:50	69.4	69.4	69.4	54	52.0	0	2	135	0.00	30.015 
20:55	69.1	69.1	69.1	55	52.2	0	2	135	0.00	30.016 
21:00	68.8	68.8	68.8	57	52.9	0	1	135	0.00	30.020 
21:05	68.6	68.6	68.6	56	52.3	0	1	135	0.00	30.019 
21:10	68.3	68.3	68.3	57	52.5	0	0	---	0.00	30.023 
21:15	67.9	67.9	67.9	58	52.6	0	0	---	0.00	30.024 
21:20	67.6	67.6	67.6	60	53.2	0	0	---	0.00	30.024 
21:25	67.3	67.3	67.3	62	53.8	0	0	---	0.00	30.024 
21:30	66.9	66.9	66.9	63	53.9	0	0	---	0.00	30.025 
21:35	66.6	66.6	66.6	64	54.0	0	0	---	0.00	30.025 
21:40	66.3	66.3	66.3	66	54.6	0	0	---	0.00	30.025 
21:45	66.0	66.0	66.0	67	54.7	0	0	---	0.00	30.034 
21:50	65.8	65.8	65.8	68	54.9	0	0	---	0.00	30.034 
21:55	65.5	65.5	65.5	68	54.7	0	0	---	0.00	30.034 
22:00	65.2	65.2	65.2	68	54.4	0	0	---	0.00	30.041 
22:05	65.0	65.0	65.0	68	54.2	0	0	---	0.00	30.041 
22:10	64.8	64.8	64.8	68	54.0	0	0	---	0.00	30.041 
22:15	64.5	64.5	64.5	68	53.7	0	0	---	0.00	30.042 
22:20	64.3	64.3	64.3	68	53.5	0	0	---	0.00	30.043 
22:25	64.2	64.2	64.2	70	54.2	0	0	---	0.00	30.048 
22:30	64.0	64.0	64.0	70	54.0	0	0	---	0.00	30.047 
22:35	63.9	63.9	63.9	71	54.3	0	0	---	0.00	30.047 
22:40	63.5	63.5	63.5	71	53.9	0	0	---	0.00	30.048 
22:45	63.2	63.2	63.2	72	54.0	0	0	---	0.00	30.049 
22:50	63.1	63.1	63.1	73	54.3	0	0	---	0.00	30.052 
22:55	62.9	62.9	62.9	73	54.1	0	0	---	0.00	30.055 
23:00	62.6	62.6	62.6	73	53.8	0	0	---	0.00	30.055 
23:05	62.4	62.4	62.4	74	54.0	0	0	---	0.00	30.055 
23:10	62.3	62.3	62.3	75	54.3	0	0	---	0.00	30.057 
23:15	62.3	62.3	62.3	75	54.3	0	1	135	0.00	30.058 
23:20	63.1	63.1	63.1	69	52.8	0	1	135	0.00	30.056 
23:25	63.5	63.5	63.5	68	52.7	0	1	135	0.00	30.057 
23:30	63.7	63.7	63.7	67	52.5	0	0	---	0.00	30.058 
23:35	63.7	63.7	63.7	66	52.1	0	0	---	0.00	30.057 
23:40	63.7	63.7	63.7	66	52.1	0	0	---	0.00	30.057 
23:45	63.5	63.5	63.5	66	51.9	0	0	---	0.00	30.057 
23:50	63.2	63.2	63.2	66	51.6	0	0	---	0.00	30.058 
23:55	63.1	63.1	63.1	66	51.6	0	0	---	0.00	30.058 

CoCoRaHS
IN-AL-39
A2 Web Hosting
Creative Commons License
GoDaddy
Look for:

loaded 2017-10-19 14:47:40 • last modified 2010-11-18 10:43:29
Privacy PolicyDisclaimer
• wx.awcolley.com is powered by PmWiki v.2002016 •
• all content (unless otherwise noted) © 2017 A W Colley